Time;durP1;ratioP1;P1;durP2;ratioP2;P2;SDS_P1;SDS_P2;PMS_P1;PMS_P2;Temp;Humidity;BMP_temperature;BMP_pressure;BME280_temperature;BME280_humidity;BME280_pressure;Samples;Min_cycle;Max_cycle;Signal;HPM_P1;HPM_P2
2023/01/11 00:02:19;;;;;;;8.65;3.75;;;;;;;;;;5094368;28;20397;-28
2023/01/11 00:04:46;;;;;;;7.22;2.17;;;;;;;;;;5094300;28;20104;-28
2023/01/11 00:07:12;;;;;;;6.78;2.90;;;;;;;;;;5094462;28;20047;-27
2023/01/11 00:09:38;;;;;;;9.93;2.20;;;;;;;;;;5096539;28;20020;-28
2023/01/11 00:12:04;;;;;;;6.85;1.30;;;;;;;;;;5080603;28;20080;-27
2023/01/11 00:14:30;;;;;;;8.07;1.67;;;;;;;;;;5098438;28;20043;-28
2023/01/11 00:16:58;;;;;;;6.05;1.63;;;;;;;;;;5098391;28;20028;-28
2023/01/11 00:19:24;;;;;;;7.70;2.00;;;;;;;;;;5099102;28;20040;-27
2023/01/11 00:21:51;;;;;;;11.30;2.28;;;;;;;;;;5098406;28;20366;-28
2023/01/11 00:24:17;;;;;;;9.77;2.10;;;;;;;;;;5098238;28;20035;-28
2023/01/11 00:26:43;;;;;;;4.63;1.70;;;;;;;;;;5098461;28;20379;-28
2023/01/11 00:29:09;;;;;;;4.90;1.60;;;;;;;;;;5080313;28;20059;-27
2023/01/11 00:31:35;;;;;;;5.82;1.65;;;;;;;;;;5098345;28;20028;-28
2023/01/11 00:34:01;;;;;;;8.07;3.40;;;;;;;;;;5098030;28;20107;-28
2023/01/11 00:36:27;;;;;;;6.00;1.48;;;;;;;;;;5098046;28;20089;-28
2023/01/11 00:38:54;;;;;;;8.25;3.63;;;;;;;;;;5097968;28;20050;-28
2023/01/11 00:49:36;;;;;;;4.47;1.80;;;;;;;;;;5098394;28;20482;-28
2023/01/11 00:52:04;;;;;;;6.95;1.52;;;;;;;;;;5097698;28;20028;-28
2023/01/11 00:54:30;;;;;;;3.75;1.90;;;;;;;;;;5097961;28;20042;-28
2023/01/11 00:56:56;;;;;;;3.22;1.60;;;;;;;;;;5097622;28;20070;-28
2023/01/11 00:59:22;;;;;;;5.63;1.98;;;;;;;;;;5097596;28;20024;-28
2023/01/11 01:01:49;;;;;;;6.70;2.17;;;;;;;;;;5097388;28;20024;-28
2023/01/11 01:04:15;;;;;;;4.32;1.38;;;;;;;;;;5097297;28;20068;-27
2023/01/11 01:06:41;;;;;;;7.85;1.85;;;;;;;;;;5097768;28;20074;-28
2023/01/11 01:09:07;;;;;;;6.30;1.75;;;;;;;;;;5079654;28;20408;-28
2023/01/11 01:11:33;;;;;;;5.57;1.92;;;;;;;;;;5097616;28;20071;-28
2023/01/11 01:16:46;;;;;;;9.95;1.92;;;;;;;;;;5097354;28;20061;-28
2023/01/11 01:19:12;;;;;;;3.72;1.63;;;;;;;;;;5097259;28;20024;-28
2023/01/11 01:21:38;;;;;;;8.52;1.83;;;;;;;;;;5096668;28;20032;-28
2023/01/11 01:24:05;;;;;;;2.85;1.88;;;;;;;;;;5079251;28;20023;-28
2023/01/11 01:26:31;;;;;;;5.60;1.60;;;;;;;;;;5079265;28;20130;-28
2023/01/11 01:28:57;;;;;;;4.78;2.38;;;;;;;;;;5097075;28;20020;-28
2023/01/11 01:31:24;;;;;;;4.00;1.73;;;;;;;;;;5079185;28;20035;-28
2023/01/11 01:33:50;;;;;;;6.20;1.55;;;;;;;;;;5097132;28;20355;-28
2023/01/11 01:36:16;;;;;;;5.88;2.00;;;;;;;;;;5096928;28;20090;-28
2023/01/11 01:38:42;;;;;;;4.57;1.23;;;;;;;;;;5096753;28;20016;-28
2023/01/11 01:41:09;;;;;;;2.92;1.33;;;;;;;;;;5096756;28;20027;-28
2023/01/11 01:43:47;;;;;;;2.50;1.70;;;;;;;;;;5096687;28;20016;-28
2023/01/11 01:46:13;;;;;;;3.38;1.45;;;;;;;;;;5096765;28;20417;-28
2023/01/11 01:48:39;;;;;;;2.50;1.40;;;;;;;;;;5096884;28;20058;-28
2023/01/11 01:51:06;;;;;;;6.18;1.70;;;;;;;;;;5096908;28;20035;-28
2023/01/11 01:53:37;;;;;;;3.63;0.85;;;;;;;;;;5096506;28;20092;-28
2023/01/11 01:56:06;;;;;;;4.70;1.60;;;;;;;;;;5096786;28;20097;-28
2023/01/11 01:58:36;;;;;;;3.15;1.13;;;;;;;;;;5096740;28;20391;-27
2023/01/11 02:03:47;;;;;;;10.85;1.50;;;;;;;;;;5096428;28;20101;-28
2023/01/11 02:06:13;;;;;;;2.38;1.40;;;;;;;;;;5096297;28;20039;-28
2023/01/11 02:08:41;;;;;;;8.27;2.05;;;;;;;;;;5096258;28;20020;-28
2023/01/11 02:11:28;;;;;;;3.78;1.40;;;;;;;;;;5096220;28;20032;-29
2023/01/11 02:13:54;;;;;;;7.63;1.48;;;;;;;;;;5095960;28;20429;-29
2023/01/11 02:16:20;;;;;;;10.27;2.67;;;;;;;;;;5096376;28;20086;-28
2023/01/11 02:18:46;;;;;;;8.10;1.88;;;;;;;;;;5078203;28;20111;-29
2023/01/11 02:21:25;;;;;;;5.38;1.83;;;;;;;;;;5096285;28;20060;-28
2023/01/11 02:24:09;;;;;;;4.85;1.88;;;;;;;;;;5095898;28;20039;-29
2023/01/11 02:26:46;;;;;;;2.38;1.20;;;;;;;;;;5095952;28;20363;-29
2023/01/11 02:29:21;;;;;;;3.75;1.70;;;;;;;;;;5095857;28;20024;-29
2023/01/11 02:31:52;;;;;;;5.82;1.35;;;;;;;;;;5095606;28;20039;-28
2023/01/11 02:34:18;;;;;;;;;;;;;;;;;;5078304;28;20059;-28
2023/01/11 02:37:11;;;;;;;3.95;1.55;;;;;;;;;;5095736;28;19943;-28
2023/01/11 02:39:58;;;;;;;4.53;1.60;;;;;;;;;;5095667;28;20111;-28
2023/01/11 02:45:33;;;;;;;4.07;1.85;;;;;;;;;;5095971;28;20042;-28
2023/01/11 02:48:21;;;;;;;6.07;1.17;;;;;;;;;;5095883;28;20021;-28
2023/01/11 02:50:53;;;;;;;3.35;1.55;;;;;;;;;;5095541;28;20482;-28
2023/01/11 02:53:23;;;;;;;2.63;1.30;;;;;;;;;;5095433;28;20415;-28
2023/01/11 02:55:51;;;;;;;1.92;1.30;;;;;;;;;;5077557;28;20051;-28
2023/01/11 02:58:19;;;;;;;2.75;1.27;;;;;;;;;;5095366;28;20024;-28
2023/01/11 03:00:46;;;;;;;1.67;1.10;;;;;;;;;;5095502;28;20035;-28
2023/01/11 03:03:17;;;;;;;1.63;0.95;;;;;;;;;;5095251;28;20079;-29
2023/01/11 03:05:43;;;;;;;;;;;;;;;;;;5095982;28;20032;-28
2023/01/11 03:08:24;;;;;;;3.03;1.20;;;;;;;;;;5095215;28;19904;-28
2023/01/11 03:10:50;;;;;;;;;;;;;;;;;;5095624;28;20039;-28
2023/01/11 03:13:28;;;;;;;2.03;0.90;;;;;;;;;;5077258;28;19908;-29
2023/01/11 03:16:10;;;;;;;4.95;1.27;;;;;;;;;;5095143;28;20035;-28
2023/01/11 03:18:39;;;;;;;4.78;0.93;;;;;;;;;;5095329;28;20100;-28
2023/01/11 03:21:22;;;;;;;3.55;1.17;;;;;;;;;;5094925;28;20032;-29
2023/01/11 03:23:57;;;;;;;2.72;1.10;;;;;;;;;;5077116;28;20024;-28
2023/01/11 03:26:33;;;;;;;6.65;2.00;;;;;;;;;;5095216;28;20028;-29
2023/01/11 03:29:22;;;;;;;4.53;1.38;;;;;;;;;;5077089;28;20024;-29
2023/01/11 03:32:07;;;;;;;3.83;1.35;;;;;;;;;;5086849;28;20371;-28
2023/01/11 03:34:36;;;;;;;5.70;1.55;;;;;;;;;;5077018;28;20097;-28
2023/01/11 03:37:02;;;;;;;1.67;0.98;;;;;;;;;;5095089;28;20031;-27
2023/01/11 03:39:35;;;;;;;4.13;1.48;;;;;;;;;;5077077;28;20035;-28
2023/01/11 03:42:05;;;;;;;3.58;1.38;;;;;;;;;;5076838;28;20116;-28
2023/01/11 03:44:33;;;;;;;1.55;1.38;;;;;;;;;;5094154;28;20024;-28
2023/01/11 03:47:06;;;;;;;2.35;1.35;;;;;;;;;;5076911;28;20459;-28
2023/01/11 03:49:40;;;;;;;1.77;0.82;;;;;;;;;;5094731;28;20363;-28
2023/01/11 03:52:08;;;;;;;4.45;1.20;;;;;;;;;;5094558;28;20154;-28
2023/01/11 03:54:34;;;;;;;4.65;1.50;;;;;;;;;;5076820;28;20028;-29
2023/01/11 03:57:12;;;;;;;4.82;0.90;;;;;;;;;;5094892;28;20412;-28
2023/01/11 03:59:39;;;;;;;5.95;2.72;;;;;;;;;;5094567;28;20103;-28
2023/01/11 04:02:05;;;;;;;1.73;0.90;;;;;;;;;;5076651;28;20066;-28
2023/01/11 04:04:31;;;;;;;4.13;1.42;;;;;;;;;;5076577;28;20036;-28
2023/01/11 04:06:57;;;;;;;1.98;1.10;;;;;;;;;;5094749;28;20087;-28
2023/01/11 04:09:23;;;;;;;2.35;1.10;;;;;;;;;;5094500;28;20024;-28
2023/01/11 04:11:49;;;;;;;2.97;1.25;;;;;;;;;;5076728;28;20036;-29
2023/01/11 04:14:16;;;;;;;4.22;1.40;;;;;;;;;;5076664;28;20119;-28
2023/01/11 04:16:42;;;;;;;2.33;0.80;;;;;;;;;;5094747;28;20024;-28
2023/01/11 04:19:08;;;;;;;5.95;1.00;;;;;;;;;;5095110;28;20103;-27
2023/01/11 04:21:34;;;;;;;4.00;1.77;;;;;;;;;;5094542;28;20036;-28
2023/01/11 04:24:00;;;;;;;5.43;1.67;;;;;;;;;;5076432;28;20092;-28
2023/01/11 04:26:26;;;;;;;2.05;1.00;;;;;;;;;;5094638;28;20036;-28
2023/01/11 04:28:52;;;;;;;11.05;2.25;;;;;;;;;;5094552;28;20035;-29
2023/01/11 04:31:19;;;;;;;7.03;1.92;;;;;;;;;;5094271;28;20165;-29
2023/01/11 04:33:45;;;;;;;10.85;1.75;;;;;;;;;;5094125;28;20455;-28
2023/01/11 04:36:11;;;;;;;7.10;1.60;;;;;;;;;;5076592;28;20028;-28
2023/01/11 04:38:37;;;;;;;7.95;2.50;;;;;;;;;;5059712;28;20028;-28
2023/01/11 04:43:48;;;;;;;14.88;3.38;;;;;;;;;;5094083;28;20035;-28
2023/01/11 04:46:15;;;;;;;7.60;1.98;;;;;;;;;;5094327;28;20016;-28
2023/01/11 04:48:41;;;;;;;13.40;3.25;;;;;;;;;;5076256;28;20435;-29
2023/01/11 04:51:08;;;;;;;8.32;1.70;;;;;;;;;;5076153;28;20036;-28
2023/01/11 04:53:34;;;;;;;11.43;3.20;;;;;;;;;;5093911;28;20024;-29
2023/01/11 04:56:01;;;;;;;7.60;2.00;;;;;;;;;;5094633;28;20147;-29
2023/01/11 04:58:28;;;;;;;5.03;1.60;;;;;;;;;;5079714;28;20032;-28
2023/01/11 05:00:54;;;;;;;3.42;1.73;;;;;;;;;;5097336;28;20032;-28
2023/01/11 05:03:21;;;;;;;6.95;2.10;;;;;;;;;;5079209;28;20040;-29
2023/01/11 05:06:00;;;;;;;3.17;1.10;;;;;;;;;;5097297;28;20374;-28
2023/01/11 05:08:27;;;;;;;4.97;1.42;;;;;;;;;;5097280;28;20032;-28
2023/01/11 05:11:02;;;;;;;5.25;1.30;;;;;;;;;;5097293;28;20044;-28
2023/01/11 05:13:41;;;;;;;3.47;1.10;;;;;;;;;;5097311;28;20032;-27
2023/01/11 05:16:07;;;;;;;4.00;1.27;;;;;;;;;;5097239;28;20328;-29
2023/01/11 05:18:34;;;;;;;1.70;1.33;;;;;;;;;;5096611;28;20023;-28
2023/01/11 05:21:00;;;;;;;3.08;1.17;;;;;;;;;;5096707;28;20032;-29
2023/01/11 05:23:30;;;;;;;7.38;1.08;;;;;;;;;;5096664;28;20039;-30
2023/01/11 05:25:56;;;;;;;9.33;2.13;;;;;;;;;;5096531;28;20024;-29
2023/01/11 05:28:32;;;;;;;6.05;1.15;;;;;;;;;;5078797;28;20258;-28
2023/01/11 05:30:59;;;;;;;7.43;1.52;;;;;;;;;;5096587;28;20028;-28
2023/01/11 05:33:25;;;;;;;4.45;1.33;;;;;;;;;;5096220;28;20363;-28
2023/01/11 05:35:56;;;;;;;11.32;1.40;;;;;;;;;;5096020;28;20035;-28
2023/01/11 05:38:23;;;;;;;8.20;1.20;;;;;;;;;;5096844;28;20030;-28
2023/01/11 05:40:56;;;;;;;5.53;1.13;;;;;;;;;;5096113;28;20028;-28
2023/01/11 05:43:22;;;;;;;3.78;1.13;;;;;;;;;;5078356;28;20081;-27
2023/01/11 05:45:49;;;;;;;12.35;1.77;;;;;;;;;;5096213;28;20024;-30
2023/01/11 05:48:15;;;;;;;5.18;2.95;;;;;;;;;;5096350;28;20027;-29
2023/01/11 05:50:41;;;;;;;4.30;1.20;;;;;;;;;;5097017;28;20032;-28
2023/01/11 05:53:07;;;;;;;5.07;1.30;;;;;;;;;;5096117;28;20027;-28
2023/01/11 05:55:33;;;;;;;14.35;2.22;;;;;;;;;;5096126;28;20371;-28
2023/01/11 05:58:00;;;;;;;7.25;2.70;;;;;;;;;;5096058;28;20325;-28
2023/01/11 06:00:26;;;;;;;11.52;1.58;;;;;;;;;;5096185;28;20035;-28
2023/01/11 06:02:52;;;;;;;6.82;3.13;;;;;;;;;;5095468;28;20048;-28
2023/01/11 06:05:18;;;;;;;11.52;1.95;;;;;;;;;;5095930;28;20355;-28
2023/01/11 06:07:44;;;;;;;13.75;1.95;;;;;;;;;;5095426;28;20095;-28
2023/01/11 06:10:11;;;;;;;7.57;1.70;;;;;;;;;;5077962;28;20048;-28
2023/01/11 06:12:37;;;;;;;9.95;1.92;;;;;;;;;;5095652;28;20328;-29
2023/01/11 06:15:03;;;;;;;10.48;1.33;;;;;;;;;;5095832;28;20028;-28
2023/01/11 06:17:29;;;;;;;6.40;1.92;;;;;;;;;;5095914;28;20099;-29
2023/01/11 06:19:55;;;;;;;8.93;2.42;;;;;;;;;;5077690;28;20035;-29
2023/01/11 06:22:22;;;;;;;8.13;1.73;;;;;;;;;;5094658;28;20036;-31
2023/01/11 06:24:48;;;;;;;12.10;2.53;;;;;;;;;;5095301;28;20437;-28
2023/01/11 06:27:16;;;;;;;12.55;2.00;;;;;;;;;;5095062;28;20020;-29
2023/01/11 06:29:42;;;;;;;13.38;2.35;;;;;;;;;;5095003;28;20485;-29
2023/01/11 06:32:08;;;;;;;15.23;2.47;;;;;;;;;;5094950;28;20112;-29
2023/01/11 06:34:34;;;;;;;18.27;1.95;;;;;;;;;;5095276;28;20046;-29
2023/01/11 06:37:00;;;;;;;14.68;2.15;;;;;;;;;;5094802;28;20059;-28
2023/01/11 06:39:27;;;;;;;17.63;2.67;;;;;;;;;;5094845;28;20024;-28
2023/01/11 06:41:53;;;;;;;14.68;2.03;;;;;;;;;;5094578;28;20049;-28
2023/01/11 06:44:19;;;;;;;20.23;2.97;;;;;;;;;;5095194;28;20098;-28
2023/01/11 06:46:45;;;;;;;15.48;2.17;;;;;;;;;;5094829;28;20024;-28
2023/01/11 06:49:11;;;;;;;7.60;2.50;;;;;;;;;;5095065;28;20020;-28
2023/01/11 06:51:38;;;;;;;13.05;1.80;;;;;;;;;;5094753;28;20024;-27
2023/01/11 06:54:04;;;;;;;19.17;1.83;;;;;;;;;;5094537;28;20432;-28
2023/01/11 06:56:30;;;;;;;17.08;3.15;;;;;;;;;;5094868;28;20099;-28
2023/01/11 06:58:56;;;;;;;16.02;3.00;;;;;;;;;;5095069;28;20103;-28
2023/01/11 07:01:23;;;;;;;21.75;2.90;;;;;;;;;;5094673;28;20479;-28
2023/01/11 07:03:49;;;;;;;23.73;4.03;;;;;;;;;;5094457;28;20056;-28
2023/01/11 07:06:16;;;;;;;13.50;1.63;;;;;;;;;;5094704;28;20028;-28
2023/01/11 07:08:42;;;;;;;13.35;1.80;;;;;;;;;;5094569;28;20031;-29
2023/01/11 07:11:08;;;;;;;11.95;1.80;;;;;;;;;;5094618;28;20028;-28
2023/01/11 07:13:34;;;;;;;11.77;2.30;;;;;;;;;;5094673;28;20032;-29
2023/01/11 07:16:01;;;;;;;7.03;1.58;;;;;;;;;;5094653;28;20039;-28
2023/01/11 07:18:30;;;;;;;8.38;3.33;;;;;;;;;;5094194;28;20028;-28
2023/01/11 07:20:56;;;;;;;10.07;2.40;;;;;;;;;;5094327;28;20431;-29
2023/01/11 07:23:22;;;;;;;10.00;2.25;;;;;;;;;;5094597;28;20028;-28
2023/01/11 07:25:48;;;;;;;7.97;1.48;;;;;;;;;;5094784;28;20052;-31
2023/01/11 07:28:15;;;;;;;10.27;1.55;;;;;;;;;;5094528;28;20028;-29
2023/01/11 07:30:41;;;;;;;6.90;2.20;;;;;;;;;;5094519;28;20098;-28
2023/01/11 07:33:09;;;;;;;8.20;2.17;;;;;;;;;;5094523;28;20062;-28
2023/01/11 07:35:35;;;;;;;15.00;1.77;;;;;;;;;;5094524;28;20340;-28
2023/01/11 07:38:01;;;;;;;20.50;2.42;;;;;;;;;;5094383;28;20054;-28
2023/01/11 07:40:28;;;;;;;17.30;2.17;;;;;;;;;;5094584;28;20316;-28
2023/01/11 07:45:39;;;;;;;12.52;2.35;;;;;;;;;;5079446;28;20093;-29
2023/01/11 07:48:07;;;;;;;19.80;2.72;;;;;;;;;;5094239;28;20466;-29
2023/01/11 07:50:33;;;;;;;11.13;2.65;;;;;;;;;;5094059;28;20119;-29
2023/01/11 07:52:59;;;;;;;12.77;1.85;;;;;;;;;;5093956;28;20020;-29
2023/01/11 07:55:25;;;;;;;13.05;2.83;;;;;;;;;;5093773;28;20073;-30
2023/01/11 07:57:51;;;;;;;12.60;1.70;;;;;;;;;;5094019;28;20033;-30
2023/01/11 08:00:18;;;;;;;13.52;1.80;;;;;;;;;;5094157;28;20032;-29
2023/01/11 08:02:44;;;;;;;10.63;2.05;;;;;;;;;;5093778;28;20068;-30
2023/01/11 08:05:10;;;;;;;5.30;1.85;;;;;;;;;;5094607;28;20024;-29
2023/01/11 08:07:36;;;;;;;12.98;2.35;;;;;;;;;;5076294;28;20031;-29
2023/01/11 08:10:03;;;;;;;14.50;3.55;;;;;;;;;;5093934;28;20040;-29
2023/01/11 08:15:14;;;;;;;7.90;1.80;;;;;;;;;;5094183;28;20358;-29
2023/01/11 08:17:40;;;;;;;16.25;2.80;;;;;;;;;;5093559;28;20115;-30
2023/01/11 08:20:07;;;;;;;23.98;2.38;;;;;;;;;;5093627;28;20551;-30
2023/01/11 08:22:34;;;;;;;18.40;2.50;;;;;;;;;;5093543;28;20036;-29
2023/01/11 08:25:00;;;;;;;21.35;2.15;;;;;;;;;;5075907;28;20028;-29
2023/01/11 08:27:26;;;;;;;21.05;2.20;;;;;;;;;;5093735;28;20344;-29
2023/01/11 08:29:52;;;;;;;19.90;2.58;;;;;;;;;;5093803;28;20027;-29
2023/01/11 08:32:18;;;;;;;10.98;2.15;;;;;;;;;;5097240;28;20028;-30
2023/01/11 08:34:44;;;;;;;15.15;2.33;;;;;;;;;;5097267;28;20107;-29
2023/01/11 08:37:11;;;;;;;8.85;1.83;;;;;;;;;;5097634;28;20028;-29
2023/01/11 08:39:37;;;;;;;11.65;1.90;;;;;;;;;;5097546;28;20053;-29
2023/01/11 08:42:03;;;;;;;6.28;1.65;;;;;;;;;;5097204;28;20031;-29
2023/01/11 08:44:29;;;;;;;11.25;3.00;;;;;;;;;;5079539;28;20040;-29
2023/01/11 08:46:55;;;;;;;8.70;2.00;;;;;;;;;;5097452;28;20028;-28
2023/01/11 08:49:21;;;;;;;6.90;1.73;;;;;;;;;;5097184;28;20030;-29
2023/01/11 08:51:48;;;;;;;10.43;2.13;;;;;;;;;;5097116;28;20043;-29
2023/01/11 08:54:16;;;;;;;10.50;2.13;;;;;;;;;;5097460;28;20039;-29
2023/01/11 08:56:43;;;;;;;6.20;2.28;;;;;;;;;;5097548;28;20031;-30
2023/01/11 08:59:10;;;;;;;7.30;1.65;;;;;;;;;;5097130;28;20063;-30
2023/01/11 09:01:36;;;;;;;9.63;1.50;;;;;;;;;;5097313;28;20036;-29
2023/01/11 09:04:02;;;;;;;4.78;1.60;;;;;;;;;;5096874;28;20040;-32
2023/01/11 09:06:28;;;;;;;10.27;1.63;;;;;;;;;;5097045;28;20067;-29
2023/01/11 09:08:55;;;;;;;8.63;1.85;;;;;;;;;;5097163;28;20052;-29
2023/01/11 09:12:06;;;;;;;9.77;2.13;;;;;;;;;;5096894;28;20035;-29
2023/01/11 09:14:07;;;;;;;10.20;2.35;;;;;;;;;;5079046;28;20084;-29
2023/01/11 09:16:33;;;;;;;11.43;1.83;;;;;;;;;;5096598;28;20055;-29
2023/01/11 09:18:59;;;;;;;12.68;2.05;;;;;;;;;;5096570;28;20043;-29
2023/01/11 09:21:26;;;;;;;10.57;2.00;;;;;;;;;;5079038;28;20039;-29
2023/01/11 09:23:52;;;;;;;5.90;1.65;;;;;;;;;;5096768;28;20050;-27
2023/01/11 09:26:18;;;;;;;8.52;1.85;;;;;;;;;;5096662;28;20109;-29
2023/01/11 09:28:44;;;;;;;16.70;2.40;;;;;;;;;;5096563;28;20024;-28
2023/01/11 09:31:10;;;;;;;9.48;1.38;;;;;;;;;;5096577;28;20085;-29
2023/01/11 09:33:40;;;;;;;9.77;1.92;;;;;;;;;;5096761;28;20085;-29
2023/01/11 09:36:06;;;;;;;8.23;2.17;;;;;;;;;;5078648;28;20036;-29
2023/01/11 09:38:32;;;;;;;6.60;1.90;;;;;;;;;;5096756;28;20085;-29
2023/01/11 09:41:28;;;;;;;5.80;1.90;;;;;;;;;;5096264;28;20031;-28
2023/01/11 09:44:10;;;;;;;7.93;1.77;;;;;;;;;;5042279;28;20037;-29
2023/01/11 09:46:41;;;;;;;8.23;1.55;;;;;;;;;;5096408;28;20017;-29
2023/01/11 09:49:11;;;;;;;9.87;2.20;;;;;;;;;;5096459;28;20497;-28
2023/01/11 09:51:38;;;;;;;9.13;1.87;;;;;;;;;;5079105;28;20658;-29
2023/01/11 09:54:09;;;;;;;15.07;3.47;;;;;;;;;;5096284;28;20019;-28
2023/01/11 09:56:45;;;;;;;28.20;3.03;;;;;;;;;;5096656;28;20035;-28
2023/01/11 09:59:32;;;;;;;16.88;3.80;;;;;;;;;;5096542;28;20032;-37
2023/01/11 10:02:10;;;;;;;27.23;3.63;;;;;;;;;;5078211;28;20039;-29
2023/01/11 10:04:56;;;;;;;14.75;3.28;;;;;;;;;;5078079;28;20066;-30
2023/01/11 10:07:50;;;;;;;10.27;2.05;;;;;;;;;;5096009;28;20028;-29
2023/01/11 10:10:23;;;;;;;8.90;2.72;;;;;;;;;;5078083;28;20028;-29
2023/01/11 10:13:03;;;;;;;7.07;2.33;;;;;;;;;;5095893;28;20077;-29
2023/01/11 10:15:49;;;;;;;6.78;1.45;;;;;;;;;;5078892;28;20455;-29
2023/01/11 10:18:32;;;;;;;8.50;2.13;;;;;;;;;;5077960;28;20032;-29
2023/01/11 10:21:14;;;;;;;6.65;1.50;;;;;;;;;;5077851;28;20082;-28
2023/01/11 10:23:55;;;;;;;4.32;1.65;;;;;;;;;;5096014;28;20489;-29
2023/01/11 10:26:29;;;;;;;11.85;2.50;;;;;;;;;;5095859;28;20024;-29
2023/01/11 10:29:32;;;;;;;17.88;2.25;;;;;;;;;;5095594;28;20024;-29
2023/01/11 10:32:21;;;;;;;7.55;1.95;;;;;;;;;;5094901;28;20047;-29
2023/01/11 10:43:11;;;;;;;6.93;1.83;;;;;;;;;;5095374;28;20073;-29
2023/01/11 10:45:43;;;;;;;6.93;3.28;;;;;;;;;;5095293;28;20081;-29
2023/01/11 10:48:32;;;;;;;7.43;2.25;;;;;;;;;;5095530;28;20028;-29
2023/01/11 10:51:01;;;;;;;7.10;2.05;;;;;;;;;;5095564;28;20383;-28
2023/01/11 10:53:31;;;;;;;13.45;2.10;;;;;;;;;;5095172;28;20443;-29
2023/01/11 10:56:13;;;;;;;8.95;2.05;;;;;;;;;;5077527;28;20024;-29
2023/01/11 10:58:39;;;;;;;15.98;2.72;;;;;;;;;;5095177;28;20027;-29
2023/01/11 11:01:16;;;;;;;9.55;2.00;;;;;;;;;;5095694;28;20032;-29
2023/01/11 11:03:48;;;;;;;13.60;3.10;;;;;;;;;;5094809;28;20054;-29
2023/01/11 11:06:14;;;;;;;13.48;2.33;;;;;;;;;;5095031;28;20173;-29
2023/01/11 11:09:00;;;;;;;15.48;2.47;;;;;;;;;;5095033;28;20073;-29
2023/01/11 11:11:34;;;;;;;21.77;4.25;;;;;;;;;;5094269;28;20124;-29
2023/01/11 11:14:14;;;;;;;8.73;2.15;;;;;;;;;;5094790;28;20391;-29
2023/01/11 11:16:43;;;;;;;14.48;2.97;;;;;;;;;;5094780;28;20020;-29
2023/01/11 11:19:11;;;;;;;7.03;2.00;;;;;;;;;;5094809;28;20020;-29
2023/01/11 11:21:42;;;;;;;4.23;1.90;;;;;;;;;;5094999;28;20044;-28
2023/01/11 11:24:16;;;;;;;13.73;2.40;;;;;;;;;;5094582;28;20412;-29
2023/01/11 11:26:45;;;;;;;7.43;2.92;;;;;;;;;;5094638;28;20027;-29
2023/01/11 11:29:19;;;;;;;11.15;2.25;;;;;;;;;;5076690;28;20048;-29
2023/01/11 11:31:48;;;;;;;8.32;2.47;;;;;;;;;;5094741;28;20035;-29
2023/01/11 11:34:18;;;;;;;13.43;2.85;;;;;;;;;;5094470;28;20035;-28
2023/01/11 11:36:48;;;;;;;6.27;2.63;;;;;;;;;;5094447;28;20110;-29
2023/01/11 11:39:19;;;;;;;5.15;2.17;;;;;;;;;;5094286;28;20044;-29
2023/01/11 11:41:50;;;;;;;20.92;3.70;;;;;;;;;;5094583;28;20020;-29
2023/01/11 11:44:18;;;;;;;12.90;2.22;;;;;;;;;;5094375;28;20031;-29
2023/01/11 11:46:56;;;;;;;9.43;2.70;;;;;;;;;;5094579;28;20388;-28
2023/01/11 11:49:22;;;;;;;15.52;2.58;;;;;;;;;;5094411;28;20016;-28
2023/01/11 11:51:48;;;;;;;9.95;2.30;;;;;;;;;;5094101;28;20355;-29
2023/01/11 11:54:24;;;;;;;5.43;2.22;;;;;;;;;;5094206;28;20103;-29
2023/01/11 11:56:51;;;;;;;12.85;2.28;;;;;;;;;;5094313;28;20328;-29
2023/01/11 11:59:19;;;;;;;12.95;3.63;;;;;;;;;;5094357;28;20085;-29
2023/01/11 12:01:46;;;;;;;9.95;3.03;;;;;;;;;;5094263;28;20030;-29
2023/01/11 12:04:17;;;;;;;11.10;2.92;;;;;;;;;;5094052;28;20068;-29
2023/01/11 12:06:44;;;;;;;11.20;1.92;;;;;;;;;;5097839;28;20032;-29
2023/01/11 12:09:16;;;;;;;10.05;2.30;;;;;;;;;;5080885;28;20382;-29
2023/01/11 12:11:46;;;;;;;7.47;3.30;;;;;;;;;;5080458;28;20032;-29
2023/01/11 12:14:15;;;;;;;9.27;2.35;;;;;;;;;;5098284;28;20035;-29
2023/01/11 12:16:42;;;;;;;7.93;2.17;;;;;;;;;;5097998;28;20036;-29
2023/01/11 12:19:41;;;;;;;6.82;1.70;;;;;;;;;;5080245;28;20030;-29
2023/01/11 12:22:18;;;;;;;12.32;2.20;;;;;;;;;;5047319;28;20078;-29
2023/01/11 12:24:48;;;;;;;9.10;2.75;;;;;;;;;;5097914;28;20395;-29
2023/01/11 12:27:27;;;;;;;18.80;5.55;;;;;;;;;;5080247;28;20319;-28
2023/01/11 12:30:07;;;;;;;16.73;2.63;;;;;;;;;;5063287;28;20028;-29
2023/01/11 12:32:45;;;;;;;9.60;2.50;;;;;;;;;;5097867;28;20030;-29
2023/01/11 12:35:23;;;;;;;7.43;2.53;;;;;;;;;;5098155;28;20085;-29
2023/01/11 12:38:05;;;;;;;15.32;2.60;;;;;;;;;;5097810;28;20107;-29
2023/01/11 12:40:36;;;;;;;8.15;2.30;;;;;;;;;;5098005;28;20417;-29
2023/01/11 12:43:20;;;;;;;10.02;3.03;;;;;;;;;;5097736;28;20036;-28
2023/01/11 12:45:57;;;;;;;13.45;3.05;;;;;;;;;;5097736;28;20024;-28
2023/01/11 12:48:29;;;;;;;17.45;3.30;;;;;;;;;;5097749;28;20027;-29
2023/01/11 12:51:01;;;;;;;12.38;3.63;;;;;;;;;;5097862;28;20028;-29
2023/01/11 12:53:35;;;;;;;9.88;2.20;;;;;;;;;;5097474;28;20112;-29
2023/01/11 12:56:06;;;;;;;12.50;2.65;;;;;;;;;;5098202;28;20064;-29
2023/01/11 12:58:51;;;;;;;10.55;3.50;;;;;;;;;;5097522;28;20332;-29
2023/01/11 13:01:26;;;;;;;12.63;2.97;;;;;;;;;;5079460;28;20036;-29
2023/01/11 13:04:06;;;;;;;13.98;4.35;;;;;;;;;;5097087;28;20033;-29
2023/01/11 13:06:41;;;;;;;20.80;3.40;;;;;;;;;;5097587;28;20404;-28
2023/01/11 13:09:20;;;;;;;11.60;2.78;;;;;;;;;;5097475;28;20024;-28
2023/01/11 13:11:47;;;;;;;13.13;2.65;;;;;;;;;;5097135;28;20089;-28
2023/01/11 13:14:26;;;;;;;17.92;3.17;;;;;;;;;;5097460;28;20111;-28
2023/01/11 13:17:04;;;;;;;12.35;2.92;;;;;;;;;;5095835;28;20028;-29
2023/01/11 13:19:37;;;;;;;10.23;2.60;;;;;;;;;;5097057;28;20028;-29
2023/01/11 13:22:04;;;;;;;5.03;2.60;;;;;;;;;;5096864;28;20047;-28
2023/01/11 13:24:32;;;;;;;10.88;3.22;;;;;;;;;;5097799;28;20085;-28
2023/01/11 13:27:04;;;;;;;26.52;4.15;;;;;;;;;;5078966;28;20028;-27
2023/01/11 13:29:30;;;;;;;35.83;5.88;;;;;;;;;;5096796;28;20095;-28
2023/01/11 13:32:00;;;;;;;29.65;4.45;;;;;;;;;;5096666;28;20031;-28
2023/01/11 13:34:29;;;;;;;20.33;2.60;;;;;;;;;;5097035;28;20032;-28
2023/01/11 13:37:01;;;;;;;17.67;3.17;;;;;;;;;;5096971;28;20094;-28
2023/01/11 13:39:46;;;;;;;26.23;4.80;;;;;;;;;;5096690;28;20344;-28
2023/01/11 13:42:24;;;;;;;26.88;4.30;;;;;;;;;;5096565;28;20024;-31
2023/01/11 13:45:13;;;;;;;27.08;4.00;;;;;;;;;;5096588;28;20031;-29
2023/01/11 13:47:44;;;;;;;12.57;3.08;;;;;;;;;;5096688;28;20024;-29
2023/01/11 13:50:12;;;;;;;22.58;3.92;;;;;;;;;;5096471;28;20023;-29
2023/01/11 13:52:45;;;;;;;14.65;2.72;;;;;;;;;;5078290;28;20035;-29
2023/01/11 13:55:11;;;;;;;7.97;2.08;;;;;;;;;;5096163;28;20421;-29
2023/01/11 13:57:44;;;;;;;19.77;3.53;;;;;;;;;;5096520;28;20039;-29
2023/01/11 14:00:22;;;;;;;8.38;2.40;;;;;;;;;;5096560;28;20123;-29
2023/01/11 14:02:51;;;;;;;12.82;3.70;;;;;;;;;;5078013;28;20039;-29
2023/01/11 14:05:21;;;;;;;22.17;3.05;;;;;;;;;;5096550;28;20032;-29
2023/01/11 14:07:59;;;;;;;19.60;2.50;;;;;;;;;;5096426;28;20031;-28
2023/01/11 14:10:31;;;;;;;24.02;3.80;;;;;;;;;;5096190;28;20028;-29
2023/01/11 14:13:06;;;;;;;23.42;5.07;;;;;;;;;;5096266;28;20035;-29
2023/01/11 14:15:37;;;;;;;11.00;2.72;;;;;;;;;;5096374;28;20098;-29
2023/01/11 14:18:08;;;;;;;32.10;3.28;;;;;;;;;;5095935;28;20047;-29
2023/01/11 14:20:37;;;;;;;22.13;4.13;;;;;;;;;;5095833;28;20455;-29
2023/01/11 14:23:19;;;;;;;8.98;2.78;;;;;;;;;;5095817;28;20028;-29
2023/01/11 14:25:46;;;;;;;12.38;2.83;;;;;;;;;;5096106;28;20020;-28
2023/01/11 14:28:30;;;;;;;17.90;3.05;;;;;;;;;;5095313;28;20032;-29
2023/01/11 14:31:05;;;;;;;16.63;3.00;;;;;;;;;;5095936;28;20361;-29
2023/01/11 14:33:34;;;;;;;11.18;2.72;;;;;;;;;;5095783;28;20028;-29
2023/01/11 14:36:01;;;;;;;18.20;3.17;;;;;;;;;;5095651;28;20175;-29
2023/01/11 14:38:27;;;;;;;17.85;2.95;;;;;;;;;;5095607;28;20043;-28
2023/01/11 14:41:01;;;;;;;11.25;2.80;;;;;;;;;;5095416;28;20031;-29
2023/01/11 14:43:42;;;;;;;18.45;3.15;;;;;;;;;;5095370;28;20451;-29
2023/01/11 14:46:08;;;;;;;;;;;;;;;;;;5095879;28;20028;-29
2023/01/11 14:48:58;;;;;;;13.68;3.28;;;;;;;;;;5095349;28;20273;-29
2023/01/11 14:51:46;;;;;;;14.25;2.30;;;;;;;;;;5087299;28;20136;-28
2023/01/11 14:54:15;;;;;;;13.80;2.72;;;;;;;;;;5095211;28;20031;-29
2023/01/11 14:56:42;;;;;;;12.32;2.67;;;;;;;;;;5095084;28;20456;-29
2023/01/11 14:59:24;;;;;;;8.23;2.38;;;;;;;;;;5095064;28;20047;-29
2023/01/11 15:02:11;;;;;;;9.43;2.75;;;;;;;;;;5095128;28;20035;-29
2023/01/11 15:04:38;;;;;;;14.63;3.90;;;;;;;;;;5094795;28;20036;-28
2023/01/11 15:07:40;;;;;;;11.73;2.92;;;;;;;;;;5095325;28;20024;-29
2023/01/11 15:10:29;;;;;;;22.35;3.63;;;;;;;;;;5033289;28;20462;-28
2023/01/11 15:12:56;;;;;;;10.68;2.35;;;;;;;;;;5073311;28;20032;-29
2023/01/11 15:18:16;;;;;;;11.50;2.40;;;;;;;;;;5095023;28;20081;-29
2023/01/11 15:18:19;;;;;;;9.35;4.22;;;;;;;;;;5094333;28;20351;-29
2023/01/11 15:20:51;;;;;;;11.43;3.10;;;;;;;;;;5094814;28;20080;-28
2023/01/11 15:23:17;;;;;;;12.35;3.45;;;;;;;;;;5094932;28;20038;-29
2023/01/11 15:25:46;;;;;;;12.75;2.30;;;;;;;;;;5095088;28;20020;-29
2023/01/11 15:28:30;;;;;;;15.10;2.85;;;;;;;;;;5094755;28;20038;-28
2023/01/11 15:30:56;;;;;;;15.65;3.13;;;;;;;;;;5094607;28;20154;-29
2023/01/11 15:33:24;;;;;;;14.80;3.53;;;;;;;;;;5094792;28;20168;-28